sensor_id;sensor_type;location;lat;lon;timestamp;P1;durP1;ratioP1;P2;durP2;ratioP2
8260;SDS011;64115;50.170;8.242;2023-10-19T00:02:09;21.20;;;11.23;;
8260;SDS011;64115;50.170;8.242;2023-10-19T00:04:40;27.93;;;11.93;;
8260;SDS011;64115;50.170;8.242;2023-10-19T00:07:07;20.83;;;11.43;;
8260;SDS011;64115;50.170;8.242;2023-10-19T00:09:35;24.03;;;11.60;;
8260;SDS011;64115;50.170;8.242;2023-10-19T00:12:04;36.33;;;12.67;;
8260;SDS011;64115;50.170;8.242;2023-10-19T00:14:34;43.47;;;13.33;;
8260;SDS011;64115;50.170;8.242;2023-10-19T00:17:00;102.57;;;14.53;;
8260;SDS011;64115;50.170;8.242;2023-10-19T00:19:32;144.60;;;16.60;;
8260;SDS011;64115;50.170;8.242;2023-10-19T00:22:04;35.97;;;11.20;;
8260;SDS011;64115;50.170;8.242;2023-10-19T00:24:36;26.10;;;12.83;;
8260;SDS011;64115;50.170;8.242;2023-10-19T00:27:02;28.17;;;12.63;;
8260;SDS011;64115;50.170;8.242;2023-10-19T00:29:41;93.30;;;14.20;;
8260;SDS011;64115;50.170;8.242;2023-10-19T00:32:13;90.27;;;13.87;;
8260;SDS011;64115;50.170;8.242;2023-10-19T00:34:41;47.43;;;13.80;;
8260;SDS011;64115;50.170;8.242;2023-10-19T00:37:11;282.27;;;21.27;;
8260;SDS011;64115;50.170;8.242;2023-10-19T00:39:44;144.93;;;15.87;;
8260;SDS011;64115;50.170;8.242;2023-10-19T00:42:18;205.17;;;17.33;;
8260;SDS011;64115;50.170;8.242;2023-10-19T00:44:49;126.60;;;16.13;;
8260;SDS011;64115;50.170;8.242;2023-10-19T00:47:16;252.37;;;20.27;;
8260;SDS011;64115;50.170;8.242;2023-10-19T00:49:45;273.00;;;23.13;;
8260;SDS011;64115;50.170;8.242;2023-10-19T00:52:13;266.83;;;20.63;;
8260;SDS011;64115;50.170;8.242;2023-10-19T00:54:45;184.00;;;18.33;;
8260;SDS011;64115;50.170;8.242;2023-10-19T00:57:20;362.57;;;26.97;;
8260;SDS011;64115;50.170;8.242;2023-10-19T00:59:57;290.10;;;19.53;;
8260;SDS011;64115;50.170;8.242;2023-10-19T01:02:36;349.67;;;22.77;;
8260;SDS011;64115;50.170;8.242;2023-10-19T01:05:10;148.53;;;18.17;;
8260;SDS011;64115;50.170;8.242;2023-10-19T01:07:38;179.40;;;19.00;;
8260;SDS011;64115;50.170;8.242;2023-10-19T01:10:06;330.77;;;22.40;;
8260;SDS011;64115;50.170;8.242;2023-10-19T01:12:36;126.10;;;14.40;;
8260;SDS011;64115;50.170;8.242;2023-10-19T01:15:06;169.93;;;19.80;;
8260;SDS011;64115;50.170;8.242;2023-10-19T01:17:38;260.30;;;20.70;;
8260;SDS011;64115;50.170;8.242;2023-10-19T01:20:07;163.10;;;18.40;;
8260;SDS011;64115;50.170;8.242;2023-10-19T01:22:58;83.87;;;14.33;;
8260;SDS011;64115;50.170;8.242;2023-10-19T01:25:44;27.20;;;12.47;;
8260;SDS011;64115;50.170;8.242;2023-10-19T01:28:15;85.07;;;14.63;;
8260;SDS011;64115;50.170;8.242;2023-10-19T01:30:43;207.60;;;18.07;;
8260;SDS011;64115;50.170;8.242;2023-10-19T01:33:10;261.20;;;20.03;;
8260;SDS011;64115;50.170;8.242;2023-10-19T01:35:40;210.77;;;19.33;;
8260;SDS011;64115;50.170;8.242;2023-10-19T01:38:35;270.70;;;19.63;;
8260;SDS011;64115;50.170;8.242;2023-10-19T01:41:03;357.53;;;23.47;;
8260;SDS011;64115;50.170;8.242;2023-10-19T01:43:32;103.83;;;15.27;;
8260;SDS011;64115;50.170;8.242;2023-10-19T01:45:59;64.57;;;14.03;;
8260;SDS011;64115;50.170;8.242;2023-10-19T01:48:30;168.73;;;17.77;;
8260;SDS011;64115;50.170;8.242;2023-10-19T01:50:58;303.47;;;23.43;;
8260;SDS011;64115;50.170;8.242;2023-10-19T01:53:24;164.57;;;19.97;;
8260;SDS011;64115;50.170;8.242;2023-10-19T01:55:53;430.53;;;26.33;;
8260;SDS011;64115;50.170;8.242;2023-10-19T01:58:23;561.97;;;26.87;;
8260;SDS011;64115;50.170;8.242;2023-10-19T02:00:51;605.07;;;33.07;;
8260;SDS011;64115;50.170;8.242;2023-10-19T02:03:20;375.23;;;25.57;;
8260;SDS011;64115;50.170;8.242;2023-10-19T02:05:48;150.77;;;19.27;;
8260;SDS011;64115;50.170;8.242;2023-10-19T02:08:15;314.87;;;21.67;;
8260;SDS011;64115;50.170;8.242;2023-10-19T02:10:46;368.60;;;24.70;;
8260;SDS011;64115;50.170;8.242;2023-10-19T02:13:13;263.30;;;21.80;;
8260;SDS011;64115;50.170;8.242;2023-10-19T02:15:42;152.90;;;21.30;;
8260;SDS011;64115;50.170;8.242;2023-10-19T02:18:08;371.23;;;24.80;;
8260;SDS011;64115;50.170;8.242;2023-10-19T02:20:35;175.33;;;22.03;;
8260;SDS011;64115;50.170;8.242;2023-10-19T02:23:05;126.63;;;27.30;;
8260;SDS011;64115;50.170;8.242;2023-10-19T02:25:33;377.03;;;29.27;;
8260;SDS011;64115;50.170;8.242;2023-10-19T02:28:02;312.37;;;24.47;;
8260;SDS011;64115;50.170;8.242;2023-10-19T02:30:33;159.10;;;19.40;;
8260;SDS011;64115;50.170;8.242;2023-10-19T02:32:59;281.00;;;27.60;;
8260;SDS011;64115;50.170;8.242;2023-10-19T02:35:26;126.17;;;21.93;;
8260;SDS011;64115;50.170;8.242;2023-10-19T02:37:52;90.40;;;16.80;;
8260;SDS011;64115;50.170;8.242;2023-10-19T02:40:19;113.70;;;16.77;;
8260;SDS011;64115;50.170;8.242;2023-10-19T02:42:48;250.27;;;22.93;;
8260;SDS011;64115;50.170;8.242;2023-10-19T02:45:18;348.00;;;26.00;;
8260;SDS011;64115;50.170;8.242;2023-10-19T02:47:45;153.40;;;19.87;;
8260;SDS011;64115;50.170;8.242;2023-10-19T02:50:14;497.03;;;31.77;;
8260;SDS011;64115;50.170;8.242;2023-10-19T02:52:41;191.50;;;21.97;;
8260;SDS011;64115;50.170;8.242;2023-10-19T02:55:08;740.63;;;35.33;;
8260;SDS011;64115;50.170;8.242;2023-10-19T02:57:36;451.73;;;29.50;;
8260;SDS011;64115;50.170;8.242;2023-10-19T03:00:04;501.73;;;30.17;;
8260;SDS011;64115;50.170;8.242;2023-10-19T03:02:36;308.53;;;26.87;;
8260;SDS011;64115;50.170;8.242;2023-10-19T03:05:06;461.57;;;26.73;;
8260;SDS011;64115;50.170;8.242;2023-10-19T03:07:39;403.20;;;28.30;;
8260;SDS011;64115;50.170;8.242;2023-10-19T03:10:08;497.27;;;31.20;;
8260;SDS011;64115;50.170;8.242;2023-10-19T03:12:47;100.23;;;17.80;;
8260;SDS011;64115;50.170;8.242;2023-10-19T03:15:15;506.77;;;31.63;;
8260;SDS011;64115;50.170;8.242;2023-10-19T03:17:41;806.07;;;42.20;;
8260;SDS011;64115;50.170;8.242;2023-10-19T03:20:10;337.67;;;29.30;;
8260;SDS011;64115;50.170;8.242;2023-10-19T03:22:36;105.10;;;20.43;;
8260;SDS011;64115;50.170;8.242;2023-10-19T03:25:04;492.43;;;34.50;;
8260;SDS011;64115;50.170;8.242;2023-10-19T03:27:59;698.10;;;41.17;;
8260;SDS011;64115;50.170;8.242;2023-10-19T03:30:32;558.57;;;35.17;;
8260;SDS011;64115;50.170;8.242;2023-10-19T03:33:05;468.50;;;30.67;;
8260;SDS011;64115;50.170;8.242;2023-10-19T03:35:35;313.33;;;26.60;;
8260;SDS011;64115;50.170;8.242;2023-10-19T03:38:03;536.63;;;34.27;;
8260;SDS011;64115;50.170;8.242;2023-10-19T03:40:33;170.10;;;23.43;;
8260;SDS011;64115;50.170;8.242;2023-10-19T03:43:03;240.03;;;27.00;;
8260;SDS011;64115;50.170;8.242;2023-10-19T03:45:42;63.60;;;19.20;;
8260;SDS011;64115;50.170;8.242;2023-10-19T03:48:15;332.97;;;34.77;;
8260;SDS011;64115;50.170;8.242;2023-10-19T03:50:43;143.63;;;20.23;;
8260;SDS011;64115;50.170;8.242;2023-10-19T03:53:10;160.83;;;23.47;;
8260;SDS011;64115;50.170;8.242;2023-10-19T03:55:37;231.33;;;21.63;;
8260;SDS011;64115;50.170;8.242;2023-10-19T03:58:08;293.87;;;48.17;;
8260;SDS011;64115;50.170;8.242;2023-10-19T04:00:37;525.63;;;39.27;;
8260;SDS011;64115;50.170;8.242;2023-10-19T04:03:03;76.17;;;21.40;;
8260;SDS011;64115;50.170;8.242;2023-10-19T04:05:30;142.30;;;22.37;;
8260;SDS011;64115;50.170;8.242;2023-10-19T04:08:04;78.03;;;19.70;;
8260;SDS011;64115;50.170;8.242;2023-10-19T04:10:38;145.23;;;32.17;;
8260;SDS011;64115;50.170;8.242;2023-10-19T04:13:09;111.97;;;25.50;;
8260;SDS011;64115;50.170;8.242;2023-10-19T04:15:37;53.00;;;19.20;;
8260;SDS011;64115;50.170;8.242;2023-10-19T04:18:04;55.37;;;18.13;;
8260;SDS011;64115;50.170;8.242;2023-10-19T04:20:35;41.33;;;16.03;;
8260;SDS011;64115;50.170;8.242;2023-10-19T04:23:08;45.43;;;16.20;;
8260;SDS011;64115;50.170;8.242;2023-10-19T04:25:39;107.67;;;25.67;;
8260;SDS011;64115;50.170;8.242;2023-10-19T04:28:06;54.70;;;17.53;;
8260;SDS011;64115;50.170;8.242;2023-10-19T04:30:34;52.77;;;18.03;;
8260;SDS011;64115;50.170;8.242;2023-10-19T04:33:02;44.90;;;16.87;;
8260;SDS011;64115;50.170;8.242;2023-10-19T04:35:33;73.40;;;21.97;;
8260;SDS011;64115;50.170;8.242;2023-10-19T04:38:03;54.07;;;16.80;;
8260;SDS011;64115;50.170;8.242;2023-10-19T04:40:32;45.47;;;14.97;;
8260;SDS011;64115;50.170;8.242;2023-10-19T04:43:01;46.40;;;15.87;;
8260;SDS011;64115;50.170;8.242;2023-10-19T04:45:29;51.53;;;15.80;;
8260;SDS011;64115;50.170;8.242;2023-10-19T04:47:56;37.57;;;14.53;;
8260;SDS011;64115;50.170;8.242;2023-10-19T04:50:23;45.27;;;15.20;;
8260;SDS011;64115;50.170;8.242;2023-10-19T04:52:53;59.47;;;16.40;;
8260;SDS011;64115;50.170;8.242;2023-10-19T04:55:19;47.03;;;15.73;;
8260;SDS011;64115;50.170;8.242;2023-10-19T04:57:47;54.73;;;17.67;;
8260;SDS011;64115;50.170;8.242;2023-10-19T05:00:15;68.67;;;21.67;;
8260;SDS011;64115;50.170;8.242;2023-10-19T05:02:45;56.13;;;18.87;;
8260;SDS011;64115;50.170;8.242;2023-10-19T05:05:12;50.63;;;16.87;;
8260;SDS011;64115;50.170;8.242;2023-10-19T05:07:42;53.40;;;17.00;;
8260;SDS011;64115;50.170;8.242;2023-10-19T05:10:09;48.63;;;16.33;;
8260;SDS011;64115;50.170;8.242;2023-10-19T05:12:36;45.63;;;15.43;;
8260;SDS011;64115;50.170;8.242;2023-10-19T05:15:05;53.57;;;16.80;;
8260;SDS011;64115;50.170;8.242;2023-10-19T05:17:33;41.03;;;14.57;;
8260;SDS011;64115;50.170;8.242;2023-10-19T05:20:00;46.07;;;15.00;;
8260;SDS011;64115;50.170;8.242;2023-10-19T05:22:30;39.33;;;14.53;;
8260;SDS011;64115;50.170;8.242;2023-10-19T05:24:57;39.53;;;14.23;;
8260;SDS011;64115;50.170;8.242;2023-10-19T05:27:25;51.07;;;18.03;;
8260;SDS011;64115;50.170;8.242;2023-10-19T05:29:52;44.83;;;15.07;;
8260;SDS011;64115;50.170;8.242;2023-10-19T05:32:21;33.47;;;13.63;;
8260;SDS011;64115;50.170;8.242;2023-10-19T05:34:49;48.57;;;16.27;;
8260;SDS011;64115;50.170;8.242;2023-10-19T05:37:16;53.17;;;17.90;;
8260;SDS011;64115;50.170;8.242;2023-10-19T05:39:43;223.43;;;61.50;;
8260;SDS011;64115;50.170;8.242;2023-10-19T05:42:10;75.63;;;25.20;;
8260;SDS011;64115;50.170;8.242;2023-10-19T05:44:37;49.93;;;18.57;;
8260;SDS011;64115;50.170;8.242;2023-10-19T05:47:04;81.87;;;25.30;;
8260;SDS011;64115;50.170;8.242;2023-10-19T05:49:33;34.57;;;15.80;;
8260;SDS011;64115;50.170;8.242;2023-10-19T05:52:00;30.47;;;15.00;;
8260;SDS011;64115;50.170;8.242;2023-10-19T05:54:28;36.37;;;15.30;;
8260;SDS011;64115;50.170;8.242;2023-10-19T05:56:55;31.50;;;14.50;;
8260;SDS011;64115;50.170;8.242;2023-10-19T05:59:22;143.93;;;47.87;;
8260;SDS011;64115;50.170;8.242;2023-10-19T06:01:51;44.37;;;18.43;;
8260;SDS011;64115;50.170;8.242;2023-10-19T06:04:18;45.47;;;18.77;;
8260;SDS011;64115;50.170;8.242;2023-10-19T06:06:46;43.27;;;17.17;;
8260;SDS011;64115;50.170;8.242;2023-10-19T06:09:14;39.27;;;16.67;;
8260;SDS011;64115;50.170;8.242;2023-10-19T06:11:42;35.07;;;14.40;;
8260;SDS011;64115;50.170;8.242;2023-10-19T06:14:08;30.93;;;13.90;;
8260;SDS011;64115;50.170;8.242;2023-10-19T06:16:36;43.27;;;17.37;;
8260;SDS011;64115;50.170;8.242;2023-10-19T06:19:03;38.23;;;15.50;;
8260;SDS011;64115;50.170;8.242;2023-10-19T06:21:30;41.20;;;18.53;;
8260;SDS011;64115;50.170;8.242;2023-10-19T06:24:00;41.63;;;17.20;;
8260;SDS011;64115;50.170;8.242;2023-10-19T06:26:27;26.13;;;13.53;;
8260;SDS011;64115;50.170;8.242;2023-10-19T06:28:54;44.50;;;19.03;;
8260;SDS011;64115;50.170;8.242;2023-10-19T06:31:24;29.37;;;14.73;;
8260;SDS011;64115;50.170;8.242;2023-10-19T06:33:51;93.33;;;32.07;;
8260;SDS011;64115;50.170;8.242;2023-10-19T06:36:18;38.67;;;15.53;;
8260;SDS011;64115;50.170;8.242;2023-10-19T06:38:45;26.07;;;13.83;;
8260;SDS011;64115;50.170;8.242;2023-10-19T06:41:18;24.93;;;13.53;;
8260;SDS011;64115;50.170;8.242;2023-10-19T06:43:47;74.80;;;26.03;;
8260;SDS011;64115;50.170;8.242;2023-10-19T06:46:14;31.83;;;15.87;;
8260;SDS011;64115;50.170;8.242;2023-10-19T06:48:41;25.70;;;14.60;;
8260;SDS011;64115;50.170;8.242;2023-10-19T06:51:08;31.80;;;15.00;;
8260;SDS011;64115;50.170;8.242;2023-10-19T06:53:36;29.20;;;15.07;;
8260;SDS011;64115;50.170;8.242;2023-10-19T06:56:03;33.03;;;16.90;;
8260;SDS011;64115;50.170;8.242;2023-10-19T06:58:33;48.47;;;20.43;;
8260;SDS011;64115;50.170;8.242;2023-10-19T07:01:01;38.13;;;19.13;;
8260;SDS011;64115;50.170;8.242;2023-10-19T07:03:33;28.50;;;15.77;;
8260;SDS011;64115;50.170;8.242;2023-10-19T07:06:00;38.83;;;17.93;;
8260;SDS011;64115;50.170;8.242;2023-10-19T07:08:27;27.93;;;14.67;;
8260;SDS011;64115;50.170;8.242;2023-10-19T07:10:54;23.63;;;14.40;;
8260;SDS011;64115;50.170;8.242;2023-10-19T07:13:22;40.60;;;17.97;;
8260;SDS011;64115;50.170;8.242;2023-10-19T07:15:50;29.83;;;13.70;;
8260;SDS011;64115;50.170;8.242;2023-10-19T07:18:16;36.93;;;17.77;;
8260;SDS011;64115;50.170;8.242;2023-10-19T07:20:43;27.33;;;14.60;;
8260;SDS011;64115;50.170;8.242;2023-10-19T07:23:13;20.63;;;13.30;;
8260;SDS011;64115;50.170;8.242;2023-10-19T07:25:45;25.90;;;14.03;;
8260;SDS011;64115;50.170;8.242;2023-10-19T07:28:13;22.97;;;13.17;;
8260;SDS011;64115;50.170;8.242;2023-10-19T07:30:41;26.57;;;14.27;;
8260;SDS011;64115;50.170;8.242;2023-10-19T07:33:11;25.67;;;14.10;;
8260;SDS011;64115;50.170;8.242;2023-10-19T07:35:42;26.47;;;13.40;;
8260;SDS011;64115;50.170;8.242;2023-10-19T07:38:12;21.70;;;12.83;;
8260;SDS011;64115;50.170;8.242;2023-10-19T07:40:39;17.60;;;12.13;;
8260;SDS011;64115;50.170;8.242;2023-10-19T07:43:06;20.17;;;12.03;;
8260;SDS011;64115;50.170;8.242;2023-10-19T07:45:33;14.73;;;11.23;;
8260;SDS011;64115;50.170;8.242;2023-10-19T07:48:02;12.57;;;10.83;;
8260;SDS011;64115;50.170;8.242;2023-10-19T07:50:33;15.53;;;10.27;;
8260;SDS011;64115;50.170;8.242;2023-10-19T07:53:01;13.77;;;10.70;;
8260;SDS011;64115;50.170;8.242;2023-10-19T07:55:28;15.73;;;11.47;;
8260;SDS011;64115;50.170;8.242;2023-10-19T07:57:56;14.80;;;11.00;;
8260;SDS011;64115;50.170;8.242;2023-10-19T08:00:26;12.63;;;10.63;;
8260;SDS011;64115;50.170;8.242;2023-10-19T08:02:54;11.60;;;10.07;;
8260;SDS011;64115;50.170;8.242;2023-10-19T08:05:21;15.77;;;9.60;;
8260;SDS011;64115;50.170;8.242;2023-10-19T08:07:50;11.63;;;9.20;;
8260;SDS011;64115;50.170;8.242;2023-10-19T08:10:17;13.33;;;8.50;;
8260;SDS011;64115;50.170;8.242;2023-10-19T08:12:46;11.17;;;8.60;;
8260;SDS011;64115;50.170;8.242;2023-10-19T08:15:13;11.10;;;8.70;;
8260;SDS011;64115;50.170;8.242;2023-10-19T08:17:42;13.03;;;8.63;;
8260;SDS011;64115;50.170;8.242;2023-10-19T08:20:10;9.77;;;8.47;;
8260;SDS011;64115;50.170;8.242;2023-10-19T08:22:42;11.60;;;8.47;;
8260;SDS011;64115;50.170;8.242;2023-10-19T08:25:13;9.30;;;8.13;;
8260;SDS011;64115;50.170;8.242;2023-10-19T08:27:40;10.97;;;8.27;;
8260;SDS011;64115;50.170;8.242;2023-10-19T08:30:10;14.17;;;9.17;;
8260;SDS011;64115;50.170;8.242;2023-10-19T08:32:38;9.10;;;7.97;;
8260;SDS011;64115;50.170;8.242;2023-10-19T08:35:05;8.70;;;7.37;;
8260;SDS011;64115;50.170;8.242;2023-10-19T08:37:32;8.50;;;7.77;;
8260;SDS011;64115;50.170;8.242;2023-10-19T08:39:59;8.53;;;7.77;;
8260;SDS011;64115;50.170;8.242;2023-10-19T08:42:28;8.27;;;7.50;;
8260;SDS011;64115;50.170;8.242;2023-10-19T08:44:55;7.73;;;7.07;;
8260;SDS011;64115;50.170;8.242;2023-10-19T08:47:24;7.87;;;6.90;;
8260;SDS011;64115;50.170;8.242;2023-10-19T08:49:51;7.83;;;7.10;;
8260;SDS011;64115;50.170;8.242;2023-10-19T08:52:19;8.00;;;7.23;;
8260;SDS011;64115;50.170;8.242;2023-10-19T08:54:48;7.20;;;6.50;;
8260;SDS011;64115;50.170;8.242;2023-10-19T08:57:15;6.60;;;6.03;;
8260;SDS011;64115;50.170;8.242;2023-10-19T08:59:45;5.80;;;5.30;;
8260;SDS011;64115;50.170;8.242;2023-10-19T09:02:15;8.90;;;5.40;;
8260;SDS011;64115;50.170;8.242;2023-10-19T09:04:43;5.50;;;4.93;;
8260;SDS011;64115;50.170;8.242;2023-10-19T09:07:10;6.97;;;5.17;;
8260;SDS011;64115;50.170;8.242;2023-10-19T09:09:37;6.80;;;5.00;;
8260;SDS011;64115;50.170;8.242;2023-10-19T09:12:06;6.17;;;5.43;;
8260;SDS011;64115;50.170;8.242;2023-10-19T09:14:33;7.13;;;5.83;;
8260;SDS011;64115;50.170;8.242;2023-10-19T09:17:06;6.03;;;5.40;;
8260;SDS011;64115;50.170;8.242;2023-10-19T09:19:39;6.17;;;5.47;;
8260;SDS011;64115;50.170;8.242;2023-10-19T09:22:08;5.97;;;5.30;;
8260;SDS011;64115;50.170;8.242;2023-10-19T09:24:43;5.43;;;4.93;;
8260;SDS011;64115;50.170;8.242;2023-10-19T09:27:11;5.30;;;4.90;;
8260;SDS011;64115;50.170;8.242;2023-10-19T09:29:38;5.70;;;5.30;;
8260;SDS011;64115;50.170;8.242;2023-10-19T09:32:08;6.33;;;5.73;;
8260;SDS011;64115;50.170;8.242;2023-10-19T09:34:36;5.03;;;4.63;;
8260;SDS011;64115;50.170;8.242;2023-10-19T09:37:06;6.07;;;5.57;;
8260;SDS011;64115;50.170;8.242;2023-10-19T09:39:33;6.47;;;5.80;;
8260;SDS011;64115;50.170;8.242;2023-10-19T09:42:00;9.33;;;5.80;;
8260;SDS011;64115;50.170;8.242;2023-10-19T09:44:32;6.50;;;5.90;;
8260;SDS011;64115;50.170;8.242;2023-10-19T09:47:09;6.87;;;5.60;;
8260;SDS011;64115;50.170;8.242;2023-10-19T09:49:40;4.97;;;4.57;;
8260;SDS011;64115;50.170;8.242;2023-10-19T09:52:08;5.70;;;4.70;;
8260;SDS011;64115;50.170;8.242;2023-10-19T09:54:38;4.70;;;4.30;;
8260;SDS011;64115;50.170;8.242;2023-10-19T09:57:14;5.90;;;5.40;;
8260;SDS011;64115;50.170;8.242;2023-10-19T09:59:49;6.63;;;5.47;;
8260;SDS011;64115;50.170;8.242;2023-10-19T10:02:24;5.13;;;4.73;;
8260;SDS011;64115;50.170;8.242;2023-10-19T10:04:54;6.57;;;4.83;;
8260;SDS011;64115;50.170;8.242;2023-10-19T10:07:22;7.23;;;4.50;;
8260;SDS011;64115;50.170;8.242;2023-10-19T10:09:50;5.00;;;4.60;;
8260;SDS011;64115;50.170;8.242;2023-10-19T10:12:18;6.97;;;4.37;;
8260;SDS011;64115;50.170;8.242;2023-10-19T10:15:00;10.03;;;4.57;;
8260;SDS011;64115;50.170;8.242;2023-10-19T10:17:34;6.00;;;4.87;;
8260;SDS011;64115;50.170;8.242;2023-10-19T10:23:18;5.47;;;4.97;;
8260;SDS011;64115;50.170;8.242;2023-10-19T10:25:49;6.57;;;5.60;;
8260;SDS011;64115;50.170;8.242;2023-10-19T10:28:18;6.57;;;5.97;;
8260;SDS011;64115;50.170;8.242;2023-10-19T10:31:07;7.63;;;6.40;;
8260;SDS011;64115;50.170;8.242;2023-10-19T10:33:42;7.47;;;6.43;;
8260;SDS011;64115;50.170;8.242;2023-10-19T10:36:11;7.23;;;6.47;;
8260;SDS011;64115;50.170;8.242;2023-10-19T10:38:38;8.10;;;7.30;;
8260;SDS011;64115;50.170;8.242;2023-10-19T10:41:06;6.73;;;6.13;;
8260;SDS011;64115;50.170;8.242;2023-10-19T10:43:47;6.70;;;6.10;;
8260;SDS011;64115;50.170;8.242;2023-10-19T10:46:17;6.47;;;5.87;;
8260;SDS011;64115;50.170;8.242;2023-10-19T10:48:47;6.90;;;6.20;;
8260;SDS011;64115;50.170;8.242;2023-10-19T10:51:15;5.57;;;5.17;;
8260;SDS011;64115;50.170;8.242;2023-10-19T10:53:42;6.53;;;5.57;;
8260;SDS011;64115;50.170;8.242;2023-10-19T10:56:09;6.93;;;6.23;;
8260;SDS011;64115;50.170;8.242;2023-10-19T10:58:37;6.57;;;6.07;;
8260;SDS011;64115;50.170;8.242;2023-10-19T11:01:05;6.10;;;5.60;;
8260;SDS011;64115;50.170;8.242;2023-10-19T11:03:31;7.37;;;6.60;;
8260;SDS011;64115;50.170;8.242;2023-10-19T11:06:04;5.90;;;5.30;;
8260;SDS011;64115;50.170;8.242;2023-10-19T11:08:33;5.73;;;5.23;;
8260;SDS011;64115;50.170;8.242;2023-10-19T11:11:03;5.57;;;5.17;;
8260;SDS011;64115;50.170;8.242;2023-10-19T11:13:31;5.60;;;4.77;;
8260;SDS011;64115;50.170;8.242;2023-10-19T11:16:00;6.13;;;4.87;;
8260;SDS011;64115;50.170;8.242;2023-10-19T11:18:31;7.97;;;5.07;;
8260;SDS011;64115;50.170;8.242;2023-10-19T11:21:01;5.50;;;5.00;;
8260;SDS011;64115;50.170;8.242;2023-10-19T11:23:37;6.27;;;5.67;;
8260;SDS011;64115;50.170;8.242;2023-10-19T11:26:04;10.30;;;5.03;;
8260;SDS011;64115;50.170;8.242;2023-10-19T11:28:32;5.70;;;5.17;;
8260;SDS011;64115;50.170;8.242;2023-10-19T11:31:12;5.70;;;5.13;;
8260;SDS011;64115;50.170;8.242;2023-10-19T11:33:40;5.43;;;4.90;;
8260;SDS011;64115;50.170;8.242;2023-10-19T11:36:07;7.27;;;5.83;;
8260;SDS011;64115;50.170;8.242;2023-10-19T11:38:38;7.57;;;5.53;;
8260;SDS011;64115;50.170;8.242;2023-10-19T11:41:06;6.10;;;5.43;;
8260;SDS011;64115;50.170;8.242;2023-10-19T11:43:33;8.33;;;5.70;;
8260;SDS011;64115;50.170;8.242;2023-10-19T11:46:01;7.90;;;5.73;;
8260;SDS011;64115;50.170;8.242;2023-10-19T11:48:29;9.07;;;6.00;;
8260;SDS011;64115;50.170;8.242;2023-10-19T11:50:56;6.03;;;5.43;;
8260;SDS011;64115;50.170;8.242;2023-10-19T11:53:23;5.83;;;5.40;;
8260;SDS011;64115;50.170;8.242;2023-10-19T11:55:52;6.93;;;5.60;;
8260;SDS011;64115;50.170;8.242;2023-10-19T11:58:18;6.20;;;5.20;;
8260;SDS011;64115;50.170;8.242;2023-10-19T12:00:45;7.20;;;5.40;;
8260;SDS011;64115;50.170;8.242;2023-10-19T12:03:12;6.10;;;5.50;;
8260;SDS011;64115;50.170;8.242;2023-10-19T12:05:40;7.93;;;5.63;;
8260;SDS011;64115;50.170;8.242;2023-10-19T12:08:07;6.67;;;5.43;;
8260;SDS011;64115;50.170;8.242;2023-10-19T12:10:34;5.53;;;5.00;;
8260;SDS011;64115;50.170;8.242;2023-10-19T12:13:03;5.70;;;5.20;;
8260;SDS011;64115;50.170;8.242;2023-10-19T12:15:32;5.67;;;5.17;;
8260;SDS011;64115;50.170;8.242;2023-10-19T12:17:59;6.37;;;4.70;;
8260;SDS011;64115;50.170;8.242;2023-10-19T12:20:27;7.30;;;5.10;;
8260;SDS011;64115;50.170;8.242;2023-10-19T12:22:55;6.30;;;5.17;;
8260;SDS011;64115;50.170;8.242;2023-10-19T12:25:24;7.43;;;5.97;;
8260;SDS011;64115;50.170;8.242;2023-10-19T12:27:55;7.53;;;5.67;;
8260;SDS011;64115;50.170;8.242;2023-10-19T12:30:24;5.97;;;5.33;;
8260;SDS011;64115;50.170;8.242;2023-10-19T12:32:56;5.63;;;5.13;;
8260;SDS011;64115;50.170;8.242;2023-10-19T12:35:26;5.80;;;5.30;;
8260;SDS011;64115;50.170;8.242;2023-10-19T12:38:10;6.93;;;4.80;;
8260;SDS011;64115;50.170;8.242;2023-10-19T12:40:41;5.60;;;5.03;;
8260;SDS011;64115;50.170;8.242;2023-10-19T12:43:09;5.97;;;5.37;;
8260;SDS011;64115;50.170;8.242;2023-10-19T12:45:39;5.63;;;5.13;;
8260;SDS011;64115;50.170;8.242;2023-10-19T12:48:06;5.90;;;5.40;;
8260;SDS011;64115;50.170;8.242;2023-10-19T12:50:36;5.43;;;5.03;;
8260;SDS011;64115;50.170;8.242;2023-10-19T12:53:03;6.53;;;5.30;;
8260;SDS011;64115;50.170;8.242;2023-10-19T12:55:31;7.03;;;6.33;;
8260;SDS011;64115;50.170;8.242;2023-10-19T12:57:59;7.73;;;7.00;;
8260;SDS011;64115;50.170;8.242;2023-10-19T13:00:32;8.97;;;6.50;;
8260;SDS011;64115;50.170;8.242;2023-10-19T13:03:08;7.43;;;6.53;;
8260;SDS011;64115;50.170;8.242;2023-10-19T13:05:38;7.17;;;6.47;;
8260;SDS011;64115;50.170;8.242;2023-10-19T13:08:06;7.13;;;6.23;;
8260;SDS011;64115;50.170;8.242;2023-10-19T13:10:34;7.77;;;7.07;;
8260;SDS011;64115;50.170;8.242;2023-10-19T13:13:05;8.33;;;7.40;;
8260;SDS011;64115;50.170;8.242;2023-10-19T13:15:34;8.57;;;7.40;;
8260;SDS011;64115;50.170;8.242;2023-10-19T13:18:02;7.80;;;7.20;;
8260;SDS011;64115;50.170;8.242;2023-10-19T13:20:32;8.20;;;7.37;;
8260;SDS011;64115;50.170;8.242;2023-10-19T13:23:00;8.50;;;7.67;;
8260;SDS011;64115;50.170;8.242;2023-10-19T13:25:28;9.10;;;8.20;;
8260;SDS011;64115;50.170;8.242;2023-10-19T13:28:10;8.20;;;7.40;;
8260;SDS011;64115;50.170;8.242;2023-10-19T13:30:41;8.40;;;7.30;;
8260;SDS011;64115;50.170;8.242;2023-10-19T13:33:09;9.30;;;8.53;;
8260;SDS011;64115;50.170;8.242;2023-10-19T13:35:39;10.07;;;9.17;;
8260;SDS011;64115;50.170;8.242;2023-10-19T13:38:07;10.53;;;9.53;;
8260;SDS011;64115;50.170;8.242;2023-10-19T13:40:35;11.53;;;10.40;;
8260;SDS011;64115;50.170;8.242;2023-10-19T13:43:03;13.40;;;12.10;;
8260;SDS011;64115;50.170;8.242;2023-10-19T13:45:32;13.30;;;12.10;;
8260;SDS011;64115;50.170;8.242;2023-10-19T13:48:00;14.27;;;12.77;;
8260;SDS011;64115;50.170;8.242;2023-10-19T13:50:28;16.97;;;14.70;;
8260;SDS011;64115;50.170;8.242;2023-10-19T13:52:56;17.63;;;15.60;;
8260;SDS011;64115;50.170;8.242;2023-10-19T13:55:25;18.13;;;15.53;;
8260;SDS011;64115;50.170;8.242;2023-10-19T13:57:53;18.07;;;16.03;;
8260;SDS011;64115;50.170;8.242;2023-10-19T14:00:21;17.57;;;15.73;;
8260;SDS011;64115;50.170;8.242;2023-10-19T14:02:55;21.10;;;16.77;;
8260;SDS011;64115;50.170;8.242;2023-10-19T14:05:24;21.50;;;17.90;;
8260;SDS011;64115;50.170;8.242;2023-10-19T14:07:52;23.13;;;19.33;;
8260;SDS011;64115;50.170;8.242;2023-10-19T14:10:21;25.07;;;19.73;;
8260;SDS011;64115;50.170;8.242;2023-10-19T14:12:49;25.57;;;21.10;;
8260;SDS011;64115;50.170;8.242;2023-10-19T14:15:17;27.67;;;21.23;;
8260;SDS011;64115;50.170;8.242;2023-10-19T14:17:48;31.37;;;23.53;;
8260;SDS011;64115;50.170;8.242;2023-10-19T14:20:15;38.80;;;25.73;;
8260;SDS011;64115;50.170;8.242;2023-10-19T14:22:44;57.37;;;25.80;;
8260;SDS011;64115;50.170;8.242;2023-10-19T14:25:12;93.70;;;28.47;;
8260;SDS011;64115;50.170;8.242;2023-10-19T14:27:41;64.00;;;27.40;;
8260;SDS011;64115;50.170;8.242;2023-10-19T14:30:09;35.93;;;25.83;;
8260;SDS011;64115;50.170;8.242;2023-10-19T14:32:38;45.40;;;24.87;;
8260;SDS011;64115;50.170;8.242;2023-10-19T14:35:07;26.23;;;22.47;;
8260;SDS011;64115;50.170;8.242;2023-10-19T14:37:36;32.07;;;23.90;;
8260;SDS011;64115;50.170;8.242;2023-10-19T14:40:05;88.70;;;26.07;;
8260;SDS011;64115;50.170;8.242;2023-10-19T14:42:35;46.30;;;27.10;;
8260;SDS011;64115;50.170;8.242;2023-10-19T14:45:05;723.27;;;50.50;;
8260;SDS011;64115;50.170;8.242;2023-10-19T14:47:35;467.40;;;35.53;;
8260;SDS011;64115;50.170;8.242;2023-10-19T14:50:02;270.30;;;35.13;;
8260;SDS011;64115;50.170;8.242;2023-10-19T14:52:29;149.77;;;30.43;;
8260;SDS011;64115;50.170;8.242;2023-10-19T14:54:57;35.67;;;25.40;;
8260;SDS011;64115;50.170;8.242;2023-10-19T14:57:24;45.10;;;25.33;;